<?xml version="1.0" encoding="UTF-8" standalone="no" ?>
<gpx xmlns="http://www.topografix.com/GPX/1/1" xmlns:xsi="http://www.w3.org/2001/XMLSchema-instance" xsi:schemaLocation="http://www.topografix.com/GPX/1/1 http://www.topografix.com/GPX/1/1/gpx.xsd" version="1.1" creator="VisuGPX - https://www.visugpx.com">
  <metadata>
    <name>83 - V - Sillans la cascade Sud </name>
    <desc><![CDATA[83 - V - Sillans la cascade Sud : les deux cascades
vendredi 04-03-22]]></desc>
  </metadata>
  <trk>
    <name><![CDATA[Sillans la cascade  vendredi 09-03-22]]></name>
    <desc><![CDATA[comment ...]]></desc>
    <trkseg>
      <trkpt lat="43.56681" lon="6.17806">
        <ele>374</ele>
        <time>2022-03-04T13:04:49Z</time>
      </trkpt>
      <trkpt lat="43.56681" lon="6.17806">
        <ele>374</ele>
        <time>2022-03-04T13:04:49Z</time>
      </trkpt>
      <trkpt lat="43.56679" lon="6.17797">
        <ele>376</ele>
        <time>2022-03-04T13:07:08Z</time>
      </trkpt>
      <trkpt lat="43.56671" lon="6.17794">
        <ele>380</ele>
        <time>2022-03-04T13:08:09Z</time>
      </trkpt>
      <trkpt lat="43.56663" lon="6.1779">
        <ele>379</ele>
        <time>2022-03-04T13:08:15Z</time>
      </trkpt>
      <trkpt lat="43.56655" lon="6.17785">
        <ele>382</ele>
        <time>2022-03-04T13:08:22Z</time>
      </trkpt>
      <trkpt lat="43.56648" lon="6.17782">
        <ele>385</ele>
        <time>2022-03-04T13:08:29Z</time>
      </trkpt>
      <trkpt lat="43.56641" lon="6.17778">
        <ele>389</ele>
        <time>2022-03-04T13:08:47Z</time>
      </trkpt>
      <trkpt lat="43.56646" lon="6.17768">
        <ele>391</ele>
        <time>2022-03-04T13:08:58Z</time>
      </trkpt>
      <trkpt lat="43.56651" lon="6.17761">
        <ele>393</ele>
        <time>2022-03-04T13:09:08Z</time>
      </trkpt>
      <trkpt lat="43.56654" lon="6.17752">
        <ele>393</ele>
        <time>2022-03-04T13:09:24Z</time>
      </trkpt>
      <trkpt lat="43.56659" lon="6.17745">
        <ele>393</ele>
        <time>2022-03-04T13:09:38Z</time>
      </trkpt>
      <trkpt lat="43.56665" lon="6.17737">
        <ele>396</ele>
        <time>2022-03-04T13:09:48Z</time>
      </trkpt>
      <trkpt lat="43.56667" lon="6.17727">
        <ele>396</ele>
        <time>2022-03-04T13:09:58Z</time>
      </trkpt>
      <trkpt lat="43.56677" lon="6.17687">
        <ele>396</ele>
        <time>2022-03-04T13:10:35Z</time>
      </trkpt>
      <trkpt lat="43.56681" lon="6.17687">
        <ele>400</ele>
        <time>2022-03-04T13:11:33Z</time>
      </trkpt>
      <trkpt lat="43.56679" lon="6.17697">
        <ele>400</ele>
        <time>2022-03-04T13:11:48Z</time>
      </trkpt>
      <trkpt lat="43.56668" lon="6.17728">
        <ele>406</ele>
        <time>2022-03-04T13:12:28Z</time>
      </trkpt>
      <trkpt lat="43.56665" lon="6.17737">
        <ele>405</ele>
        <time>2022-03-04T13:13:56Z</time>
      </trkpt>
      <trkpt lat="43.56658" lon="6.17742">
        <ele>405</ele>
        <time>2022-03-04T13:14:06Z</time>
      </trkpt>
      <trkpt lat="43.56636" lon="6.17743">
        <ele>408</ele>
        <time>2022-03-04T13:14:55Z</time>
      </trkpt>
      <trkpt lat="43.56628" lon="6.17742">
        <ele>409</ele>
        <time>2022-03-04T13:15:14Z</time>
      </trkpt>
      <trkpt lat="43.56613" lon="6.17742">
        <ele>412</ele>
        <time>2022-03-04T13:15:28Z</time>
      </trkpt>
      <trkpt lat="43.56605" lon="6.17742">
        <ele>415</ele>
        <time>2022-03-04T13:15:34Z</time>
      </trkpt>
      <trkpt lat="43.56583" lon="6.17747">
        <ele>418</ele>
        <time>2022-03-04T13:16:02Z</time>
      </trkpt>
      <trkpt lat="43.56576" lon="6.17743">
        <ele>418</ele>
        <time>2022-03-04T13:16:22Z</time>
      </trkpt>
      <trkpt lat="43.56568" lon="6.17745">
        <ele>418</ele>
        <time>2022-03-04T13:16:48Z</time>
      </trkpt>
      <trkpt lat="43.56561" lon="6.17743">
        <ele>418</ele>
        <time>2022-03-04T13:16:55Z</time>
      </trkpt>
      <trkpt lat="43.56554" lon="6.17741">
        <ele>420</ele>
        <time>2022-03-04T13:17:05Z</time>
      </trkpt>
      <trkpt lat="43.56548" lon="6.17735">
        <ele>419</ele>
        <time>2022-03-04T13:18:18Z</time>
      </trkpt>
      <trkpt lat="43.56542" lon="6.17728">
        <ele>424</ele>
        <time>2022-03-04T13:19:22Z</time>
      </trkpt>
      <trkpt lat="43.56543" lon="6.17718">
        <ele>424</ele>
        <time>2022-03-04T13:19:39Z</time>
      </trkpt>
      <trkpt lat="43.56548" lon="6.17709">
        <ele>423</ele>
        <time>2022-03-04T13:20:17Z</time>
      </trkpt>
      <trkpt lat="43.56554" lon="6.17691">
        <ele>423</ele>
        <time>2022-03-04T13:20:28Z</time>
      </trkpt>
      <trkpt lat="43.56559" lon="6.17682">
        <ele>425</ele>
        <time>2022-03-04T13:20:46Z</time>
      </trkpt>
      <trkpt lat="43.5658" lon="6.1765">
        <ele>429</ele>
        <time>2022-03-04T13:21:37Z</time>
      </trkpt>
      <trkpt lat="43.56595" lon="6.17646">
        <ele>432</ele>
        <time>2022-03-04T13:22:06Z</time>
      </trkpt>
      <trkpt lat="43.566" lon="6.17639">
        <ele>433</ele>
        <time>2022-03-04T13:25:51Z</time>
      </trkpt>
      <trkpt lat="43.56604" lon="6.17631">
        <ele>437</ele>
        <time>2022-03-04T13:27:57Z</time>
      </trkpt>
      <trkpt lat="43.56599" lon="6.17622">
        <ele>439</ele>
        <time>2022-03-04T13:28:23Z</time>
      </trkpt>
      <trkpt lat="43.56592" lon="6.17619">
        <ele>442</ele>
        <time>2022-03-04T13:28:39Z</time>
      </trkpt>
      <trkpt lat="43.56584" lon="6.17615">
        <ele>444</ele>
        <time>2022-03-04T13:28:48Z</time>
      </trkpt>
      <trkpt lat="43.56579" lon="6.17608">
        <ele>445</ele>
        <time>2022-03-04T13:28:55Z</time>
      </trkpt>
      <trkpt lat="43.56575" lon="6.17599">
        <ele>446</ele>
        <time>2022-03-04T13:29:00Z</time>
      </trkpt>
      <trkpt lat="43.56562" lon="6.17588">
        <ele>449</ele>
        <time>2022-03-04T13:29:24Z</time>
      </trkpt>
      <trkpt lat="43.56557" lon="6.17579">
        <ele>450</ele>
        <time>2022-03-04T13:29:30Z</time>
      </trkpt>
      <trkpt lat="43.56551" lon="6.17573">
        <ele>453</ele>
        <time>2022-03-04T13:29:45Z</time>
      </trkpt>
      <trkpt lat="43.56544" lon="6.17571">
        <ele>453</ele>
        <time>2022-03-04T13:29:54Z</time>
      </trkpt>
      <trkpt lat="43.5653" lon="6.17576">
        <ele>454</ele>
        <time>2022-03-04T13:30:15Z</time>
      </trkpt>
      <trkpt lat="43.56516" lon="6.17586">
        <ele>452</ele>
        <time>2022-03-04T13:30:34Z</time>
      </trkpt>
      <trkpt lat="43.56509" lon="6.17589">
        <ele>450</ele>
        <time>2022-03-04T13:30:45Z</time>
      </trkpt>
      <trkpt lat="43.56494" lon="6.17587">
        <ele>449</ele>
        <time>2022-03-04T13:31:15Z</time>
      </trkpt>
      <trkpt lat="43.56492" lon="6.17578">
        <ele>448</ele>
        <time>2022-03-04T13:31:20Z</time>
      </trkpt>
      <trkpt lat="43.56494" lon="6.17568">
        <ele>448</ele>
        <time>2022-03-04T13:31:27Z</time>
      </trkpt>
      <trkpt lat="43.56495" lon="6.17558">
        <ele>444</ele>
        <time>2022-03-04T13:31:38Z</time>
      </trkpt>
      <trkpt lat="43.56491" lon="6.17549">
        <ele>443</ele>
        <time>2022-03-04T13:31:46Z</time>
      </trkpt>
      <trkpt lat="43.56485" lon="6.17544">
        <ele>439</ele>
        <time>2022-03-04T13:31:57Z</time>
      </trkpt>
      <trkpt lat="43.56455" lon="6.17563">
        <ele>440</ele>
        <time>2022-03-04T13:32:26Z</time>
      </trkpt>
      <trkpt lat="43.56447" lon="6.17564">
        <ele>440</ele>
        <time>2022-03-04T13:32:32Z</time>
      </trkpt>
      <trkpt lat="43.56419" lon="6.17582">
        <ele>441</ele>
        <time>2022-03-04T13:33:03Z</time>
      </trkpt>
      <trkpt lat="43.56406" lon="6.17591">
        <ele>442</ele>
        <time>2022-03-04T13:33:16Z</time>
      </trkpt>
      <trkpt lat="43.56393" lon="6.17602">
        <ele>444</ele>
        <time>2022-03-04T13:33:30Z</time>
      </trkpt>
      <trkpt lat="43.5638" lon="6.17612">
        <ele>448</ele>
        <time>2022-03-04T13:33:42Z</time>
      </trkpt>
      <trkpt lat="43.56372" lon="6.17612">
        <ele>448</ele>
        <time>2022-03-04T13:33:49Z</time>
      </trkpt>
      <trkpt lat="43.56367" lon="6.17604">
        <ele>448</ele>
        <time>2022-03-04T13:33:56Z</time>
      </trkpt>
      <trkpt lat="43.56363" lon="6.17593">
        <ele>445</ele>
        <time>2022-03-04T13:34:02Z</time>
      </trkpt>
      <trkpt lat="43.56356" lon="6.17592">
        <ele>445</ele>
        <time>2022-03-04T13:34:10Z</time>
      </trkpt>
      <trkpt lat="43.56348" lon="6.17595">
        <ele>445</ele>
        <time>2022-03-04T13:34:18Z</time>
      </trkpt>
      <trkpt lat="43.56357" lon="6.17612">
        <ele>447</ele>
        <time>2022-03-04T13:34:41Z</time>
      </trkpt>
      <trkpt lat="43.56359" lon="6.17623">
        <ele>447</ele>
        <time>2022-03-04T13:34:52Z</time>
      </trkpt>
      <trkpt lat="43.56352" lon="6.17664">
        <ele>449</ele>
        <time>2022-03-04T13:35:17Z</time>
      </trkpt>
      <trkpt lat="43.56347" lon="6.17672">
        <ele>449</ele>
        <time>2022-03-04T13:35:23Z</time>
      </trkpt>
      <trkpt lat="43.56333" lon="6.17682">
        <ele>449</ele>
        <time>2022-03-04T13:35:35Z</time>
      </trkpt>
      <trkpt lat="43.56311" lon="6.17693">
        <ele>449</ele>
        <time>2022-03-04T13:35:58Z</time>
      </trkpt>
      <trkpt lat="43.56304" lon="6.17698">
        <ele>450</ele>
        <time>2022-03-04T13:36:04Z</time>
      </trkpt>
      <trkpt lat="43.56297" lon="6.17704">
        <ele>452</ele>
        <time>2022-03-04T13:36:11Z</time>
      </trkpt>
      <trkpt lat="43.5629" lon="6.17708">
        <ele>454</ele>
        <time>2022-03-04T13:36:17Z</time>
      </trkpt>
      <trkpt lat="43.56268" lon="6.17717">
        <ele>454</ele>
        <time>2022-03-04T13:36:37Z</time>
      </trkpt>
      <trkpt lat="43.5626" lon="6.17718">
        <ele>454</ele>
        <time>2022-03-04T13:36:42Z</time>
      </trkpt>
      <trkpt lat="43.56243" lon="6.17716">
        <ele>451</ele>
        <time>2022-03-04T13:36:54Z</time>
      </trkpt>
      <trkpt lat="43.56227" lon="6.17716">
        <ele>448</ele>
        <time>2022-03-04T13:37:06Z</time>
      </trkpt>
      <trkpt lat="43.5622" lon="6.17715">
        <ele>445</ele>
        <time>2022-03-04T13:37:12Z</time>
      </trkpt>
      <trkpt lat="43.56212" lon="6.17714">
        <ele>443</ele>
        <time>2022-03-04T13:37:19Z</time>
      </trkpt>
      <trkpt lat="43.56181" lon="6.17708">
        <ele>437</ele>
        <time>2022-03-04T13:37:46Z</time>
      </trkpt>
      <trkpt lat="43.56143" lon="6.17707">
        <ele>439</ele>
        <time>2022-03-04T13:38:17Z</time>
      </trkpt>
      <trkpt lat="43.56113" lon="6.177">
        <ele>439</ele>
        <time>2022-03-04T13:38:41Z</time>
      </trkpt>
      <trkpt lat="43.56097" lon="6.17699">
        <ele>437</ele>
        <time>2022-03-04T13:38:53Z</time>
      </trkpt>
      <trkpt lat="43.56083" lon="6.17702">
        <ele>435</ele>
        <time>2022-03-04T13:39:07Z</time>
      </trkpt>
      <trkpt lat="43.56068" lon="6.1771">
        <ele>436</ele>
        <time>2022-03-04T13:39:23Z</time>
      </trkpt>
      <trkpt lat="43.56054" lon="6.1772">
        <ele>439</ele>
        <time>2022-03-04T13:39:36Z</time>
      </trkpt>
      <trkpt lat="43.56034" lon="6.17734">
        <ele>445</ele>
        <time>2022-03-04T13:39:58Z</time>
      </trkpt>
      <trkpt lat="43.56004" lon="6.17749">
        <ele>449</ele>
        <time>2022-03-04T13:40:24Z</time>
      </trkpt>
      <trkpt lat="43.55997" lon="6.1775">
        <ele>448</ele>
        <time>2022-03-04T13:40:30Z</time>
      </trkpt>
      <trkpt lat="43.55989" lon="6.17751">
        <ele>446</ele>
        <time>2022-03-04T13:40:36Z</time>
      </trkpt>
      <trkpt lat="43.55966" lon="6.17746">
        <ele>441</ele>
        <time>2022-03-04T13:40:56Z</time>
      </trkpt>
      <trkpt lat="43.55943" lon="6.17753">
        <ele>438</ele>
        <time>2022-03-04T13:41:16Z</time>
      </trkpt>
      <trkpt lat="43.55929" lon="6.17762">
        <ele>438</ele>
        <time>2022-03-04T13:41:30Z</time>
      </trkpt>
      <trkpt lat="43.55893" lon="6.17786">
        <ele>435</ele>
        <time>2022-03-04T13:42:02Z</time>
      </trkpt>
      <trkpt lat="43.55886" lon="6.17792">
        <ele>435</ele>
        <time>2022-03-04T13:42:08Z</time>
      </trkpt>
      <trkpt lat="43.55881" lon="6.178">
        <ele>435</ele>
        <time>2022-03-04T13:42:15Z</time>
      </trkpt>
      <trkpt lat="43.55876" lon="6.17808">
        <ele>433</ele>
        <time>2022-03-04T13:42:22Z</time>
      </trkpt>
      <trkpt lat="43.55872" lon="6.17817">
        <ele>431</ele>
        <time>2022-03-04T13:42:28Z</time>
      </trkpt>
      <trkpt lat="43.55865" lon="6.17837">
        <ele>428</ele>
        <time>2022-03-04T13:42:44Z</time>
      </trkpt>
      <trkpt lat="43.55852" lon="6.17874">
        <ele>427</ele>
        <time>2022-03-04T13:43:12Z</time>
      </trkpt>
      <trkpt lat="43.55849" lon="6.17883">
        <ele>425</ele>
        <time>2022-03-04T13:43:53Z</time>
      </trkpt>
      <trkpt lat="43.55845" lon="6.17892">
        <ele>424</ele>
        <time>2022-03-04T13:44:02Z</time>
      </trkpt>
      <trkpt lat="43.5584" lon="6.179">
        <ele>421</ele>
        <time>2022-03-04T13:44:09Z</time>
      </trkpt>
      <trkpt lat="43.55833" lon="6.17905">
        <ele>420</ele>
        <time>2022-03-04T13:44:14Z</time>
      </trkpt>
      <trkpt lat="43.55827" lon="6.17911">
        <ele>418</ele>
        <time>2022-03-04T13:44:21Z</time>
      </trkpt>
      <trkpt lat="43.55822" lon="6.17919">
        <ele>419</ele>
        <time>2022-03-04T13:44:33Z</time>
      </trkpt>
      <trkpt lat="43.55804" lon="6.17937">
        <ele>418</ele>
        <time>2022-03-04T13:45:03Z</time>
      </trkpt>
      <trkpt lat="43.55778" lon="6.17961">
        <ele>417</ele>
        <time>2022-03-04T13:45:35Z</time>
      </trkpt>
      <trkpt lat="43.55771" lon="6.17968">
        <ele>415</ele>
        <time>2022-03-04T13:45:40Z</time>
      </trkpt>
      <trkpt lat="43.55766" lon="6.17977">
        <ele>415</ele>
        <time>2022-03-04T13:45:48Z</time>
      </trkpt>
      <trkpt lat="43.55763" lon="6.17987">
        <ele>415</ele>
        <time>2022-03-04T13:45:56Z</time>
      </trkpt>
      <trkpt lat="43.55759" lon="6.17995">
        <ele>413</ele>
        <time>2022-03-04T13:46:05Z</time>
      </trkpt>
      <trkpt lat="43.55747" lon="6.18007">
        <ele>412</ele>
        <time>2022-03-04T13:46:18Z</time>
      </trkpt>
      <trkpt lat="43.55732" lon="6.18017">
        <ele>413</ele>
        <time>2022-03-04T13:46:31Z</time>
      </trkpt>
      <trkpt lat="43.55697" lon="6.18038">
        <ele>417</ele>
        <time>2022-03-04T13:47:04Z</time>
      </trkpt>
      <trkpt lat="43.55661" lon="6.18055">
        <ele>415</ele>
        <time>2022-03-04T13:47:38Z</time>
      </trkpt>
      <trkpt lat="43.55653" lon="6.18059">
        <ele>416</ele>
        <time>2022-03-04T13:47:47Z</time>
      </trkpt>
      <trkpt lat="43.55631" lon="6.18068">
        <ele>412</ele>
        <time>2022-03-04T13:48:09Z</time>
      </trkpt>
      <trkpt lat="43.55597" lon="6.18093">
        <ele>405</ele>
        <time>2022-03-04T13:48:44Z</time>
      </trkpt>
      <trkpt lat="43.55589" lon="6.18098">
        <ele>404</ele>
        <time>2022-03-04T13:48:51Z</time>
      </trkpt>
      <trkpt lat="43.55552" lon="6.18119">
        <ele>400</ele>
        <time>2022-03-04T13:49:27Z</time>
      </trkpt>
      <trkpt lat="43.5553" lon="6.18135">
        <ele>400</ele>
        <time>2022-03-04T13:49:51Z</time>
      </trkpt>
      <trkpt lat="43.55503" lon="6.18175">
        <ele>398</ele>
        <time>2022-03-04T13:50:24Z</time>
      </trkpt>
      <trkpt lat="43.55479" lon="6.18216">
        <ele>396</ele>
        <time>2022-03-04T13:51:00Z</time>
      </trkpt>
      <trkpt lat="43.55473" lon="6.18224">
        <ele>396</ele>
        <time>2022-03-04T13:51:09Z</time>
      </trkpt>
      <trkpt lat="43.55454" lon="6.18271">
        <ele>396</ele>
        <time>2022-03-04T13:51:40Z</time>
      </trkpt>
      <trkpt lat="43.55451" lon="6.18281">
        <ele>395</ele>
        <time>2022-03-04T13:51:48Z</time>
      </trkpt>
      <trkpt lat="43.55434" lon="6.1833">
        <ele>390</ele>
        <time>2022-03-04T13:52:21Z</time>
      </trkpt>
      <trkpt lat="43.55421" lon="6.18369">
        <ele>389</ele>
        <time>2022-03-04T13:52:50Z</time>
      </trkpt>
      <trkpt lat="43.55395" lon="6.1841">
        <ele>389</ele>
        <time>2022-03-04T13:53:25Z</time>
      </trkpt>
      <trkpt lat="43.5537" lon="6.1845">
        <ele>389</ele>
        <time>2022-03-04T13:54:00Z</time>
      </trkpt>
      <trkpt lat="43.55345" lon="6.18479">
        <ele>385</ele>
        <time>2022-03-04T13:54:26Z</time>
      </trkpt>
      <trkpt lat="43.55308" lon="6.18502">
        <ele>384</ele>
        <time>2022-03-04T13:54:56Z</time>
      </trkpt>
      <trkpt lat="43.55293" lon="6.18507">
        <ele>383</ele>
        <time>2022-03-04T13:55:09Z</time>
      </trkpt>
      <trkpt lat="43.5527" lon="6.18515">
        <ele>382</ele>
        <time>2022-03-04T13:55:32Z</time>
      </trkpt>
      <trkpt lat="43.55234" lon="6.18533">
        <ele>382</ele>
        <time>2022-03-04T13:56:06Z</time>
      </trkpt>
      <trkpt lat="43.55194" lon="6.18539">
        <ele>382</ele>
        <time>2022-03-04T13:56:42Z</time>
      </trkpt>
      <trkpt lat="43.55171" lon="6.1854">
        <ele>383</ele>
        <time>2022-03-04T13:57:06Z</time>
      </trkpt>
      <trkpt lat="43.55066" lon="6.18556">
        <ele>-1</ele>
        <time>2022-03-04T13:04:49Z</time>
      </trkpt>
      <trkpt lat="43.55014" lon="6.18607">
        <ele>-1</ele>
        <time>2022-03-04T13:04:49Z</time>
      </trkpt>
      <trkpt lat="43.54861" lon="6.18706">
        <ele>-1</ele>
        <time>2022-03-04T13:04:49Z</time>
      </trkpt>
      <trkpt lat="43.54859" lon="6.18705">
        <ele>388</ele>
        <time>2022-03-04T14:02:25Z</time>
      </trkpt>
      <trkpt lat="43.54855" lon="6.18715">
        <ele>388</ele>
        <time>2022-03-04T14:06:26Z</time>
      </trkpt>
      <trkpt lat="43.54842" lon="6.18753">
        <ele>389</ele>
        <time>2022-03-04T14:07:02Z</time>
      </trkpt>
      <trkpt lat="43.54844" lon="6.18765">
        <ele>389</ele>
        <time>2022-03-04T14:07:16Z</time>
      </trkpt>
      <trkpt lat="43.54852" lon="6.18796">
        <ele>388</ele>
        <time>2022-03-04T14:07:37Z</time>
      </trkpt>
      <trkpt lat="43.54856" lon="6.18818">
        <ele>389</ele>
        <time>2022-03-04T14:07:54Z</time>
      </trkpt>
      <trkpt lat="43.5486" lon="6.18826">
        <ele>387</ele>
        <time>2022-03-04T14:08:03Z</time>
      </trkpt>
      <trkpt lat="43.54864" lon="6.18835">
        <ele>385</ele>
        <time>2022-03-04T14:08:18Z</time>
      </trkpt>
      <trkpt lat="43.54867" lon="6.18889">
        <ele>381</ele>
        <time>2022-03-04T14:08:52Z</time>
      </trkpt>
      <trkpt lat="43.54862" lon="6.1892">
        <ele>381</ele>
        <time>2022-03-04T14:09:15Z</time>
      </trkpt>
      <trkpt lat="43.54854" lon="6.18951">
        <ele>379</ele>
        <time>2022-03-04T14:09:36Z</time>
      </trkpt>
      <trkpt lat="43.54854" lon="6.18961">
        <ele>378</ele>
        <time>2022-03-04T14:09:46Z</time>
      </trkpt>
      <trkpt lat="43.54858" lon="6.18971">
        <ele>378</ele>
        <time>2022-03-04T14:10:40Z</time>
      </trkpt>
      <trkpt lat="43.54864" lon="6.18977">
        <ele>377</ele>
        <time>2022-03-04T14:10:50Z</time>
      </trkpt>
      <trkpt lat="43.54871" lon="6.18979">
        <ele>375</ele>
        <time>2022-03-04T14:11:18Z</time>
      </trkpt>
      <trkpt lat="43.54895" lon="6.18981">
        <ele>372</ele>
        <time>2022-03-04T14:11:49Z</time>
      </trkpt>
      <trkpt lat="43.54911" lon="6.18985">
        <ele>370</ele>
        <time>2022-03-04T14:12:05Z</time>
      </trkpt>
      <trkpt lat="43.54944" lon="6.18983">
        <ele>369</ele>
        <time>2022-03-04T14:12:38Z</time>
      </trkpt>
      <trkpt lat="43.5495" lon="6.18987">
        <ele>370</ele>
        <time>2022-03-04T14:13:15Z</time>
      </trkpt>
      <trkpt lat="43.54979" lon="6.19006">
        <ele>369</ele>
        <time>2022-03-04T14:13:41Z</time>
      </trkpt>
      <trkpt lat="43.54986" lon="6.1901">
        <ele>367</ele>
        <time>2022-03-04T14:13:48Z</time>
      </trkpt>
      <trkpt lat="43.55018" lon="6.19014">
        <ele>365</ele>
        <time>2022-03-04T14:14:13Z</time>
      </trkpt>
      <trkpt lat="43.55026" lon="6.19013">
        <ele>365</ele>
        <time>2022-03-04T14:14:21Z</time>
      </trkpt>
      <trkpt lat="43.5504" lon="6.19018">
        <ele>363</ele>
        <time>2022-03-04T14:14:34Z</time>
      </trkpt>
      <trkpt lat="43.5507" lon="6.19017">
        <ele>364</ele>
        <time>2022-03-04T14:15:07Z</time>
      </trkpt>
      <trkpt lat="43.55078" lon="6.19022">
        <ele>364</ele>
        <time>2022-03-04T14:15:12Z</time>
      </trkpt>
      <trkpt lat="43.55086" lon="6.19022">
        <ele>364</ele>
        <time>2022-03-04T14:15:20Z</time>
      </trkpt>
      <trkpt lat="43.55093" lon="6.19025">
        <ele>364</ele>
        <time>2022-03-04T14:15:27Z</time>
      </trkpt>
      <trkpt lat="43.55101" lon="6.19025">
        <ele>364</ele>
        <time>2022-03-04T14:15:35Z</time>
      </trkpt>
      <trkpt lat="43.55109" lon="6.19029">
        <ele>364</ele>
        <time>2022-03-04T14:15:41Z</time>
      </trkpt>
      <trkpt lat="43.55116" lon="6.19029">
        <ele>365</ele>
        <time>2022-03-04T14:15:49Z</time>
      </trkpt>
      <trkpt lat="43.55146" lon="6.19039">
        <ele>365</ele>
        <time>2022-03-04T14:16:16Z</time>
      </trkpt>
      <trkpt lat="43.55152" lon="6.19047">
        <ele>365</ele>
        <time>2022-03-04T14:16:22Z</time>
      </trkpt>
      <trkpt lat="43.55156" lon="6.19056">
        <ele>365</ele>
        <time>2022-03-04T14:16:27Z</time>
      </trkpt>
      <trkpt lat="43.55159" lon="6.19078">
        <ele>364</ele>
        <time>2022-03-04T14:16:39Z</time>
      </trkpt>
      <trkpt lat="43.55155" lon="6.19121">
        <ele>362</ele>
        <time>2022-03-04T14:17:06Z</time>
      </trkpt>
      <trkpt lat="43.55147" lon="6.19162">
        <ele>360</ele>
        <time>2022-03-04T14:17:33Z</time>
      </trkpt>
      <trkpt lat="43.55144" lon="6.19171">
        <ele>360</ele>
        <time>2022-03-04T14:17:40Z</time>
      </trkpt>
      <trkpt lat="43.55136" lon="6.19175">
        <ele>360</ele>
        <time>2022-03-04T14:20:06Z</time>
      </trkpt>
      <trkpt lat="43.55135" lon="6.19185">
        <ele>360</ele>
        <time>2022-03-04T14:20:53Z</time>
      </trkpt>
      <trkpt lat="43.5514" lon="6.19192">
        <ele>360</ele>
        <time>2022-03-04T14:21:05Z</time>
      </trkpt>
      <trkpt lat="43.55148" lon="6.19191">
        <ele>363</ele>
        <time>2022-03-04T14:21:18Z</time>
      </trkpt>
      <trkpt lat="43.55153" lon="6.19193">
        <ele>363</ele>
        <time>2022-03-04T14:21:44Z</time>
      </trkpt>
      <trkpt lat="43.55156" lon="6.19202">
        <ele>361</ele>
        <time>2022-03-04T14:21:54Z</time>
      </trkpt>
      <trkpt lat="43.55171" lon="6.19213">
        <ele>361</ele>
        <time>2022-03-04T14:22:16Z</time>
      </trkpt>
      <trkpt lat="43.55208" lon="6.19229">
        <ele>365</ele>
        <time>2022-03-04T14:22:52Z</time>
      </trkpt>
      <trkpt lat="43.55215" lon="6.19229">
        <ele>367</ele>
        <time>2022-03-04T14:22:59Z</time>
      </trkpt>
      <trkpt lat="43.55246" lon="6.19232">
        <ele>371</ele>
        <time>2022-03-04T14:23:32Z</time>
      </trkpt>
      <trkpt lat="43.55267" lon="6.19243">
        <ele>373</ele>
        <time>2022-03-04T14:23:55Z</time>
      </trkpt>
      <trkpt lat="43.55274" lon="6.19247">
        <ele>375</ele>
        <time>2022-03-04T14:24:06Z</time>
      </trkpt>
      <trkpt lat="43.55281" lon="6.19246">
        <ele>376</ele>
        <time>2022-03-04T14:24:18Z</time>
      </trkpt>
      <trkpt lat="43.55288" lon="6.19247">
        <ele>379</ele>
        <time>2022-03-04T14:24:34Z</time>
      </trkpt>
      <trkpt lat="43.55296" lon="6.19246">
        <ele>382</ele>
        <time>2022-03-04T14:24:48Z</time>
      </trkpt>
      <trkpt lat="43.55303" lon="6.19247">
        <ele>382</ele>
        <time>2022-03-04T14:24:57Z</time>
      </trkpt>
      <trkpt lat="43.55326" lon="6.19248">
        <ele>386</ele>
        <time>2022-03-04T14:25:31Z</time>
      </trkpt>
      <trkpt lat="43.55334" lon="6.19246">
        <ele>387</ele>
        <time>2022-03-04T14:25:49Z</time>
      </trkpt>
      <trkpt lat="43.55342" lon="6.19249">
        <ele>388</ele>
        <time>2022-03-04T14:25:59Z</time>
      </trkpt>
      <trkpt lat="43.55347" lon="6.19256">
        <ele>389</ele>
        <time>2022-03-04T14:26:03Z</time>
      </trkpt>
      <trkpt lat="43.55353" lon="6.19252">
        <ele>391</ele>
        <time>2022-03-04T14:26:19Z</time>
      </trkpt>
      <trkpt lat="43.55362" lon="6.19252">
        <ele>392</ele>
        <time>2022-03-04T14:26:27Z</time>
      </trkpt>
      <trkpt lat="43.55377" lon="6.19259">
        <ele>394</ele>
        <time>2022-03-04T14:26:38Z</time>
      </trkpt>
      <trkpt lat="43.55384" lon="6.19259">
        <ele>395</ele>
        <time>2022-03-04T14:26:47Z</time>
      </trkpt>
      <trkpt lat="43.55412" lon="6.19294">
        <ele>397</ele>
        <time>2022-03-04T14:27:21Z</time>
      </trkpt>
      <trkpt lat="43.55418" lon="6.19302">
        <ele>400</ele>
        <time>2022-03-04T14:27:29Z</time>
      </trkpt>
      <trkpt lat="43.55424" lon="6.19308">
        <ele>402</ele>
        <time>2022-03-04T14:27:37Z</time>
      </trkpt>
      <trkpt lat="43.55432" lon="6.19311">
        <ele>402</ele>
        <time>2022-03-04T14:27:45Z</time>
      </trkpt>
      <trkpt lat="43.55438" lon="6.19317">
        <ele>403</ele>
        <time>2022-03-04T14:27:52Z</time>
      </trkpt>
      <trkpt lat="43.55445" lon="6.19318">
        <ele>403</ele>
        <time>2022-03-04T14:28:03Z</time>
      </trkpt>
      <trkpt lat="43.5545" lon="6.19327">
        <ele>404</ele>
        <time>2022-03-04T14:28:11Z</time>
      </trkpt>
      <trkpt lat="43.55464" lon="6.19333">
        <ele>406</ele>
        <time>2022-03-04T14:28:29Z</time>
      </trkpt>
      <trkpt lat="43.55472" lon="6.19334">
        <ele>406</ele>
        <time>2022-03-04T14:28:38Z</time>
      </trkpt>
      <trkpt lat="43.55487" lon="6.19337">
        <ele>406</ele>
        <time>2022-03-04T14:28:54Z</time>
      </trkpt>
      <trkpt lat="43.55494" lon="6.19333">
        <ele>406</ele>
        <time>2022-03-04T14:29:03Z</time>
      </trkpt>
      <trkpt lat="43.55502" lon="6.19331">
        <ele>406</ele>
        <time>2022-03-04T14:29:13Z</time>
      </trkpt>
      <trkpt lat="43.55509" lon="6.19327">
        <ele>404</ele>
        <time>2022-03-04T14:29:21Z</time>
      </trkpt>
      <trkpt lat="43.55515" lon="6.1932">
        <ele>405</ele>
        <time>2022-03-04T14:29:30Z</time>
      </trkpt>
      <trkpt lat="43.55523" lon="6.19318">
        <ele>406</ele>
        <time>2022-03-04T14:29:59Z</time>
      </trkpt>
      <trkpt lat="43.55538" lon="6.19324">
        <ele>407</ele>
        <time>2022-03-04T14:30:39Z</time>
      </trkpt>
      <trkpt lat="43.55543" lon="6.19331">
        <ele>407</ele>
        <time>2022-03-04T14:31:22Z</time>
      </trkpt>
      <trkpt lat="43.55549" lon="6.19338">
        <ele>408</ele>
        <time>2022-03-04T14:34:10Z</time>
      </trkpt>
      <trkpt lat="43.55565" lon="6.19337">
        <ele>406</ele>
        <time>2022-03-04T14:34:25Z</time>
      </trkpt>
      <trkpt lat="43.5558" lon="6.19329">
        <ele>406</ele>
        <time>2022-03-04T14:34:42Z</time>
      </trkpt>
      <trkpt lat="43.55586" lon="6.19324">
        <ele>407</ele>
        <time>2022-03-04T14:34:48Z</time>
      </trkpt>
      <trkpt lat="43.55592" lon="6.19316">
        <ele>407</ele>
        <time>2022-03-04T14:34:55Z</time>
      </trkpt>
      <trkpt lat="43.55612" lon="6.19299">
        <ele>407</ele>
        <time>2022-03-04T14:35:14Z</time>
      </trkpt>
      <trkpt lat="43.55619" lon="6.19296">
        <ele>408</ele>
        <time>2022-03-04T14:35:21Z</time>
      </trkpt>
      <trkpt lat="43.55633" lon="6.19287">
        <ele>411</ele>
        <time>2022-03-04T14:35:36Z</time>
      </trkpt>
      <trkpt lat="43.55654" lon="6.19274">
        <ele>415</ele>
        <time>2022-03-04T14:36:01Z</time>
      </trkpt>
      <trkpt lat="43.55683" lon="6.19283">
        <ele>414</ele>
        <time>2022-03-04T14:36:34Z</time>
      </trkpt>
      <trkpt lat="43.55711" lon="6.19305">
        <ele>416</ele>
        <time>2022-03-04T14:37:05Z</time>
      </trkpt>
      <trkpt lat="43.5572" lon="6.19322">
        <ele>416</ele>
        <time>2022-03-04T14:37:19Z</time>
      </trkpt>
      <trkpt lat="43.55723" lon="6.19331">
        <ele>415</ele>
        <time>2022-03-04T14:37:27Z</time>
      </trkpt>
      <trkpt lat="43.55737" lon="6.19357">
        <ele>414</ele>
        <time>2022-03-04T14:37:58Z</time>
      </trkpt>
      <trkpt lat="43.55739" lon="6.19377">
        <ele>413</ele>
        <time>2022-03-04T14:38:14Z</time>
      </trkpt>
      <trkpt lat="43.55744" lon="6.19385">
        <ele>412</ele>
        <time>2022-03-04T14:38:23Z</time>
      </trkpt>
      <trkpt lat="43.55751" lon="6.19388">
        <ele>410</ele>
        <time>2022-03-04T14:38:43Z</time>
      </trkpt>
      <trkpt lat="43.55756" lon="6.19407">
        <ele>409</ele>
        <time>2022-03-04T14:39:05Z</time>
      </trkpt>
      <trkpt lat="43.55753" lon="6.1946">
        <ele>409</ele>
        <time>2022-03-04T14:39:36Z</time>
      </trkpt>
      <trkpt lat="43.55752" lon="6.19482">
        <ele>408</ele>
        <time>2022-03-04T14:39:52Z</time>
      </trkpt>
      <trkpt lat="43.55755" lon="6.19492">
        <ele>407</ele>
        <time>2022-03-04T14:40:03Z</time>
      </trkpt>
      <trkpt lat="43.55758" lon="6.19501">
        <ele>405</ele>
        <time>2022-03-04T14:40:20Z</time>
      </trkpt>
      <trkpt lat="43.5576" lon="6.19511">
        <ele>405</ele>
        <time>2022-03-04T14:40:31Z</time>
      </trkpt>
      <trkpt lat="43.55776" lon="6.19533">
        <ele>404</ele>
        <time>2022-03-04T14:40:57Z</time>
      </trkpt>
      <trkpt lat="43.55783" lon="6.19551">
        <ele>404</ele>
        <time>2022-03-04T14:41:09Z</time>
      </trkpt>
      <trkpt lat="43.55789" lon="6.19557">
        <ele>403</ele>
        <time>2022-03-04T14:41:19Z</time>
      </trkpt>
      <trkpt lat="43.55792" lon="6.19566">
        <ele>403</ele>
        <time>2022-03-04T14:41:27Z</time>
      </trkpt>
      <trkpt lat="43.55798" lon="6.19573">
        <ele>406</ele>
        <time>2022-03-04T14:41:36Z</time>
      </trkpt>
      <trkpt lat="43.55819" lon="6.19583">
        <ele>405</ele>
        <time>2022-03-04T14:42:17Z</time>
      </trkpt>
      <trkpt lat="43.55822" lon="6.19592">
        <ele>404</ele>
        <time>2022-03-04T14:42:24Z</time>
      </trkpt>
      <trkpt lat="43.55827" lon="6.19599">
        <ele>403</ele>
        <time>2022-03-04T14:42:30Z</time>
      </trkpt>
      <trkpt lat="43.55834" lon="6.196">
        <ele>398</ele>
        <time>2022-03-04T14:42:39Z</time>
      </trkpt>
      <trkpt lat="43.55847" lon="6.19613">
        <ele>398</ele>
        <time>2022-03-04T14:42:56Z</time>
      </trkpt>
      <trkpt lat="43.55854" lon="6.19615">
        <ele>396</ele>
        <time>2022-03-04T14:43:06Z</time>
      </trkpt>
      <trkpt lat="43.55857" lon="6.19624">
        <ele>394</ele>
        <time>2022-03-04T14:43:13Z</time>
      </trkpt>
      <trkpt lat="43.55861" lon="6.19633">
        <ele>392</ele>
        <time>2022-03-04T14:43:22Z</time>
      </trkpt>
      <trkpt lat="43.55872" lon="6.19647">
        <ele>389</ele>
        <time>2022-03-04T14:43:42Z</time>
      </trkpt>
      <trkpt lat="43.55879" lon="6.19651">
        <ele>389</ele>
        <time>2022-03-04T14:43:57Z</time>
      </trkpt>
      <trkpt lat="43.55884" lon="6.19658">
        <ele>387</ele>
        <time>2022-03-04T14:44:09Z</time>
      </trkpt>
      <trkpt lat="43.55891" lon="6.19664">
        <ele>384</ele>
        <time>2022-03-04T14:44:33Z</time>
      </trkpt>
      <trkpt lat="43.55894" lon="6.19674">
        <ele>383</ele>
        <time>2022-03-04T14:44:43Z</time>
      </trkpt>
      <trkpt lat="43.55901" lon="6.19678">
        <ele>382</ele>
        <time>2022-03-04T14:44:56Z</time>
      </trkpt>
      <trkpt lat="43.55912" lon="6.19694">
        <ele>382</ele>
        <time>2022-03-04T14:45:11Z</time>
      </trkpt>
      <trkpt lat="43.55909" lon="6.19693">
        <ele>378</ele>
        <time>2022-03-04T14:45:58Z</time>
      </trkpt>
      <trkpt lat="43.55906" lon="6.19683">
        <ele>377</ele>
        <time>2022-03-04T14:46:07Z</time>
      </trkpt>
      <trkpt lat="43.55904" lon="6.19639">
        <ele>378</ele>
        <time>2022-03-04T14:46:42Z</time>
      </trkpt>
      <trkpt lat="43.55901" lon="6.19618">
        <ele>378</ele>
        <time>2022-03-04T14:47:20Z</time>
      </trkpt>
      <trkpt lat="43.55906" lon="6.19613">
        <ele>380</ele>
        <time>2022-03-04T14:49:21Z</time>
      </trkpt>
      <trkpt lat="43.5591" lon="6.19621">
        <ele>380</ele>
        <time>2022-03-04T14:49:28Z</time>
      </trkpt>
      <trkpt lat="43.55916" lon="6.19628">
        <ele>375</ele>
        <time>2022-03-04T14:49:39Z</time>
      </trkpt>
      <trkpt lat="43.55927" lon="6.19643">
        <ele>372</ele>
        <time>2022-03-04T14:50:02Z</time>
      </trkpt>
      <trkpt lat="43.55946" lon="6.1966">
        <ele>362</ele>
        <time>2022-03-04T14:50:37Z</time>
      </trkpt>
      <trkpt lat="43.55958" lon="6.19674">
        <ele>362</ele>
        <time>2022-03-04T14:50:52Z</time>
      </trkpt>
      <trkpt lat="43.55974" lon="6.19697">
        <ele>361</ele>
        <time>2022-03-04T14:51:27Z</time>
      </trkpt>
      <trkpt lat="43.55984" lon="6.19712">
        <ele>362</ele>
        <time>2022-03-04T14:51:42Z</time>
      </trkpt>
      <trkpt lat="43.55993" lon="6.19728">
        <ele>365</ele>
        <time>2022-03-04T14:52:04Z</time>
      </trkpt>
      <trkpt lat="43.56" lon="6.19733">
        <ele>365</ele>
        <time>2022-03-04T14:52:11Z</time>
      </trkpt>
      <trkpt lat="43.56015" lon="6.19734">
        <ele>364</ele>
        <time>2022-03-04T14:52:36Z</time>
      </trkpt>
      <trkpt lat="43.56023" lon="6.19734">
        <ele>362</ele>
        <time>2022-03-04T14:52:45Z</time>
      </trkpt>
      <trkpt lat="43.56053" lon="6.19737">
        <ele>359</ele>
        <time>2022-03-04T14:53:27Z</time>
      </trkpt>
      <trkpt lat="43.56073" lon="6.19758">
        <ele>357</ele>
        <time>2022-03-04T14:53:58Z</time>
      </trkpt>
      <trkpt lat="43.56088" lon="6.19767">
        <ele>357</ele>
        <time>2022-03-04T14:54:11Z</time>
      </trkpt>
      <trkpt lat="43.56112" lon="6.19774">
        <ele>354</ele>
        <time>2022-03-04T14:54:31Z</time>
      </trkpt>
      <trkpt lat="43.56142" lon="6.19785">
        <ele>348</ele>
        <time>2022-03-04T14:55:02Z</time>
      </trkpt>
      <trkpt lat="43.56148" lon="6.19791">
        <ele>348</ele>
        <time>2022-03-04T14:55:11Z</time>
      </trkpt>
      <trkpt lat="43.56158" lon="6.19808">
        <ele>349</ele>
        <time>2022-03-04T14:55:23Z</time>
      </trkpt>
      <trkpt lat="43.56162" lon="6.19818">
        <ele>350</ele>
        <time>2022-03-04T14:55:38Z</time>
      </trkpt>
      <trkpt lat="43.56169" lon="6.19819">
        <ele>350</ele>
        <time>2022-03-04T14:55:50Z</time>
      </trkpt>
      <trkpt lat="43.56171" lon="6.19774">
        <ele>348</ele>
        <time>2022-03-04T14:56:18Z</time>
      </trkpt>
      <trkpt lat="43.56176" lon="6.19754">
        <ele>346</ele>
        <time>2022-03-04T14:56:31Z</time>
      </trkpt>
      <trkpt lat="43.56181" lon="6.19746">
        <ele>345</ele>
        <time>2022-03-04T14:56:38Z</time>
      </trkpt>
      <trkpt lat="43.56189" lon="6.19727">
        <ele>342</ele>
        <time>2022-03-04T14:56:51Z</time>
      </trkpt>
      <trkpt lat="43.56193" lon="6.19707">
        <ele>343</ele>
        <time>2022-03-04T14:57:04Z</time>
      </trkpt>
      <trkpt lat="43.56186" lon="6.19667">
        <ele>342</ele>
        <time>2022-03-04T14:57:37Z</time>
      </trkpt>
      <trkpt lat="43.56184" lon="6.19657">
        <ele>341</ele>
        <time>2022-03-04T14:57:45Z</time>
      </trkpt>
      <trkpt lat="43.56177" lon="6.19638">
        <ele>342</ele>
        <time>2022-03-04T14:58:03Z</time>
      </trkpt>
      <trkpt lat="43.56179" lon="6.19628">
        <ele>343</ele>
        <time>2022-03-04T14:58:36Z</time>
      </trkpt>
      <trkpt lat="43.56179" lon="6.19616">
        <ele>343</ele>
        <time>2022-03-04T14:59:56Z</time>
      </trkpt>
      <trkpt lat="43.56184" lon="6.19597">
        <ele>342</ele>
        <time>2022-03-04T15:00:37Z</time>
      </trkpt>
      <trkpt lat="43.56191" lon="6.19567">
        <ele>342</ele>
        <time>2022-03-04T15:01:27Z</time>
      </trkpt>
      <trkpt lat="43.56177" lon="6.19542">
        <ele>340</ele>
        <time>2022-03-04T15:02:00Z</time>
      </trkpt>
      <trkpt lat="43.56171" lon="6.19536">
        <ele>341</ele>
        <time>2022-03-04T15:02:09Z</time>
      </trkpt>
      <trkpt lat="43.56164" lon="6.19533">
        <ele>343</ele>
        <time>2022-03-04T15:02:13Z</time>
      </trkpt>
      <trkpt lat="43.56158" lon="6.19526">
        <ele>343</ele>
        <time>2022-03-04T15:02:27Z</time>
      </trkpt>
      <trkpt lat="43.56157" lon="6.19514">
        <ele>342</ele>
        <time>2022-03-04T15:02:36Z</time>
      </trkpt>
      <trkpt lat="43.56161" lon="6.19505">
        <ele>340</ele>
        <time>2022-03-04T15:02:51Z</time>
      </trkpt>
      <trkpt lat="43.56175" lon="6.195">
        <ele>338</ele>
        <time>2022-03-04T15:03:10Z</time>
      </trkpt>
      <trkpt lat="43.56184" lon="6.19501">
        <ele>335</ele>
        <time>2022-03-04T15:03:26Z</time>
      </trkpt>
      <trkpt lat="43.56192" lon="6.19501">
        <ele>330</ele>
        <time>2022-03-04T15:03:40Z</time>
      </trkpt>
      <trkpt lat="43.5621" lon="6.19525">
        <ele>329</ele>
        <time>2022-03-04T15:04:12Z</time>
      </trkpt>
      <trkpt lat="43.56235" lon="6.19546">
        <ele>330</ele>
        <time>2022-03-04T15:04:42Z</time>
      </trkpt>
      <trkpt lat="43.56258" lon="6.19557">
        <ele>330</ele>
        <time>2022-03-04T15:05:12Z</time>
      </trkpt>
      <trkpt lat="43.56274" lon="6.19561">
        <ele>328</ele>
        <time>2022-03-04T15:05:29Z</time>
      </trkpt>
      <trkpt lat="43.56281" lon="6.19566">
        <ele>326</ele>
        <time>2022-03-04T15:05:46Z</time>
      </trkpt>
      <trkpt lat="43.56285" lon="6.19574">
        <ele>324</ele>
        <time>2022-03-04T15:06:04Z</time>
      </trkpt>
      <trkpt lat="43.56292" lon="6.19577">
        <ele>324</ele>
        <time>2022-03-04T15:06:23Z</time>
      </trkpt>
      <trkpt lat="43.56298" lon="6.19583">
        <ele>322</ele>
        <time>2022-03-04T15:09:09Z</time>
      </trkpt>
      <trkpt lat="43.56304" lon="6.19589">
        <ele>321</ele>
        <time>2022-03-04T15:10:17Z</time>
      </trkpt>
      <trkpt lat="43.56311" lon="6.19592">
        <ele>319</ele>
        <time>2022-03-04T15:10:24Z</time>
      </trkpt>
      <trkpt lat="43.56332" lon="6.19609">
        <ele>318</ele>
        <time>2022-03-04T15:10:37Z</time>
      </trkpt>
      <trkpt lat="43.56337" lon="6.19616">
        <ele>315</ele>
        <time>2022-03-04T15:10:45Z</time>
      </trkpt>
      <trkpt lat="43.56341" lon="6.19624">
        <ele>312</ele>
        <time>2022-03-04T15:10:59Z</time>
      </trkpt>
      <trkpt lat="43.56346" lon="6.19632">
        <ele>310</ele>
        <time>2022-03-04T15:11:07Z</time>
      </trkpt>
      <trkpt lat="43.56351" lon="6.19639">
        <ele>307</ele>
        <time>2022-03-04T15:11:19Z</time>
      </trkpt>
      <trkpt lat="43.56367" lon="6.19663">
        <ele>303</ele>
        <time>2022-03-04T15:12:05Z</time>
      </trkpt>
      <trkpt lat="43.56379" lon="6.19649">
        <ele>302</ele>
        <time>2022-03-04T15:12:34Z</time>
      </trkpt>
      <trkpt lat="43.56386" lon="6.19629">
        <ele>301</ele>
        <time>2022-03-04T15:12:56Z</time>
      </trkpt>
      <trkpt lat="43.56393" lon="6.19598">
        <ele>300</ele>
        <time>2022-03-04T15:13:18Z</time>
      </trkpt>
      <trkpt lat="43.56395" lon="6.19586">
        <ele>298</ele>
        <time>2022-03-04T15:13:29Z</time>
      </trkpt>
      <trkpt lat="43.56398" lon="6.19576">
        <ele>295</ele>
        <time>2022-03-04T15:13:33Z</time>
      </trkpt>
      <trkpt lat="43.56401" lon="6.19567">
        <ele>293</ele>
        <time>2022-03-04T15:13:44Z</time>
      </trkpt>
      <trkpt lat="43.56404" lon="6.19558">
        <ele>289</ele>
        <time>2022-03-04T15:13:54Z</time>
      </trkpt>
      <trkpt lat="43.56407" lon="6.19548">
        <ele>287</ele>
        <time>2022-03-04T15:14:04Z</time>
      </trkpt>
      <trkpt lat="43.56408" lon="6.19539">
        <ele>285</ele>
        <time>2022-03-04T15:14:12Z</time>
      </trkpt>
      <trkpt lat="43.56402" lon="6.19532">
        <ele>285</ele>
        <time>2022-03-04T15:14:29Z</time>
      </trkpt>
      <trkpt lat="43.56388" lon="6.19526">
        <ele>286</ele>
        <time>2022-03-04T15:14:45Z</time>
      </trkpt>
      <trkpt lat="43.56381" lon="6.19521">
        <ele>289</ele>
        <time>2022-03-04T15:14:54Z</time>
      </trkpt>
      <trkpt lat="43.56371" lon="6.19505">
        <ele>289</ele>
        <time>2022-03-04T15:15:06Z</time>
      </trkpt>
      <trkpt lat="43.5637" lon="6.19485">
        <ele>290</ele>
        <time>2022-03-04T15:15:21Z</time>
      </trkpt>
      <trkpt lat="43.56373" lon="6.19464">
        <ele>288</ele>
        <time>2022-03-04T15:15:37Z</time>
      </trkpt>
      <trkpt lat="43.56377" lon="6.19444">
        <ele>280</ele>
        <time>2022-03-04T15:15:54Z</time>
      </trkpt>
      <trkpt lat="43.56376" lon="6.19434">
        <ele>279</ele>
        <time>2022-03-04T15:16:01Z</time>
      </trkpt>
      <trkpt lat="43.56371" lon="6.19414">
        <ele>278</ele>
        <time>2022-03-04T15:16:15Z</time>
      </trkpt>
      <trkpt lat="43.5637" lon="6.19403">
        <ele>280</ele>
        <time>2022-03-04T15:16:22Z</time>
      </trkpt>
      <trkpt lat="43.56361" lon="6.19375">
        <ele>283</ele>
        <time>2022-03-04T15:16:55Z</time>
      </trkpt>
      <trkpt lat="43.56356" lon="6.19354">
        <ele>281</ele>
        <time>2022-03-04T15:17:53Z</time>
      </trkpt>
      <trkpt lat="43.56346" lon="6.19325">
        <ele>280</ele>
        <time>2022-03-04T15:18:10Z</time>
      </trkpt>
      <trkpt lat="43.56338" lon="6.19307">
        <ele>279</ele>
        <time>2022-03-04T15:18:23Z</time>
      </trkpt>
      <trkpt lat="43.56327" lon="6.19267">
        <ele>276</ele>
        <time>2022-03-04T15:19:11Z</time>
      </trkpt>
      <trkpt lat="43.56318" lon="6.19252">
        <ele>279</ele>
        <time>2022-03-04T15:19:29Z</time>
      </trkpt>
      <trkpt lat="43.5631" lon="6.19249">
        <ele>282</ele>
        <time>2022-03-04T15:19:44Z</time>
      </trkpt>
      <trkpt lat="43.56304" lon="6.19244">
        <ele>281</ele>
        <time>2022-03-04T15:20:03Z</time>
      </trkpt>
      <trkpt lat="43.563" lon="6.19234">
        <ele>278</ele>
        <time>2022-03-04T15:20:39Z</time>
      </trkpt>
      <trkpt lat="43.563" lon="6.19224">
        <ele>278</ele>
        <time>2022-03-04T15:20:48Z</time>
      </trkpt>
      <trkpt lat="43.56294" lon="6.19204">
        <ele>278</ele>
        <time>2022-03-04T15:21:06Z</time>
      </trkpt>
      <trkpt lat="43.56292" lon="6.19193">
        <ele>280</ele>
        <time>2022-03-04T15:21:27Z</time>
      </trkpt>
      <trkpt lat="43.5628" lon="6.1918">
        <ele>281</ele>
        <time>2022-03-04T15:21:57Z</time>
      </trkpt>
      <trkpt lat="43.56267" lon="6.19168">
        <ele>281</ele>
        <time>2022-03-04T15:22:23Z</time>
      </trkpt>
      <trkpt lat="43.5627" lon="6.19157">
        <ele>286</ele>
        <time>2022-03-04T15:24:21Z</time>
      </trkpt>
      <trkpt lat="43.56272" lon="6.19148">
        <ele>284</ele>
        <time>2022-03-04T15:24:44Z</time>
      </trkpt>
      <trkpt lat="43.56265" lon="6.1915">
        <ele>283</ele>
        <time>2022-03-04T15:27:42Z</time>
      </trkpt>
      <trkpt lat="43.56257" lon="6.19144">
        <ele>285</ele>
        <time>2022-03-04T15:28:47Z</time>
      </trkpt>
      <trkpt lat="43.56252" lon="6.19136">
        <ele>285</ele>
        <time>2022-03-04T15:29:39Z</time>
      </trkpt>
      <trkpt lat="43.56242" lon="6.19121">
        <ele>282</ele>
        <time>2022-03-04T15:31:25Z</time>
      </trkpt>
      <trkpt lat="43.56236" lon="6.19114">
        <ele>282</ele>
        <time>2022-03-04T15:31:30Z</time>
      </trkpt>
      <trkpt lat="43.56233" lon="6.19105">
        <ele>282</ele>
        <time>2022-03-04T15:31:48Z</time>
      </trkpt>
      <trkpt lat="43.56231" lon="6.19084">
        <ele>283</ele>
        <time>2022-03-04T15:32:12Z</time>
      </trkpt>
      <trkpt lat="43.56227" lon="6.19075">
        <ele>283</ele>
        <time>2022-03-04T15:32:54Z</time>
      </trkpt>
      <trkpt lat="43.56226" lon="6.19054">
        <ele>283</ele>
        <time>2022-03-04T15:33:34Z</time>
      </trkpt>
      <trkpt lat="43.56227" lon="6.19044">
        <ele>282</ele>
        <time>2022-03-04T15:35:22Z</time>
      </trkpt>
      <trkpt lat="43.5623" lon="6.19024">
        <ele>282</ele>
        <time>2022-03-04T15:35:53Z</time>
      </trkpt>
      <trkpt lat="43.5623" lon="6.19013">
        <ele>282</ele>
        <time>2022-03-04T15:36:04Z</time>
      </trkpt>
      <trkpt lat="43.56232" lon="6.19003">
        <ele>282</ele>
        <time>2022-03-04T15:36:19Z</time>
      </trkpt>
      <trkpt lat="43.56233" lon="6.18992">
        <ele>284</ele>
        <time>2022-03-04T15:36:46Z</time>
      </trkpt>
      <trkpt lat="43.56232" lon="6.18981">
        <ele>286</ele>
        <time>2022-03-04T15:36:52Z</time>
      </trkpt>
      <trkpt lat="43.56231" lon="6.1897">
        <ele>288</ele>
        <time>2022-03-04T15:37:03Z</time>
      </trkpt>
      <trkpt lat="43.56228" lon="6.18949">
        <ele>289</ele>
        <time>2022-03-04T15:37:35Z</time>
      </trkpt>
      <trkpt lat="43.56227" lon="6.1894">
        <ele>289</ele>
        <time>2022-03-04T15:37:43Z</time>
      </trkpt>
      <trkpt lat="43.56226" lon="6.18929">
        <ele>292</ele>
        <time>2022-03-04T15:39:58Z</time>
      </trkpt>
      <trkpt lat="43.56225" lon="6.18918">
        <ele>288</ele>
        <time>2022-03-04T15:40:07Z</time>
      </trkpt>
      <trkpt lat="43.56226" lon="6.18898">
        <ele>286</ele>
        <time>2022-03-04T15:44:19Z</time>
      </trkpt>
      <trkpt lat="43.56223" lon="6.18907">
        <ele>287</ele>
        <time>2022-03-04T15:45:31Z</time>
      </trkpt>
      <trkpt lat="43.56217" lon="6.18915">
        <ele>290</ele>
        <time>2022-03-04T15:48:16Z</time>
      </trkpt>
      <trkpt lat="43.5621" lon="6.18915">
        <ele>291</ele>
        <time>2022-03-04T15:49:03Z</time>
      </trkpt>
      <trkpt lat="43.56203" lon="6.18916">
        <ele>293</ele>
        <time>2022-03-04T15:49:11Z</time>
      </trkpt>
      <trkpt lat="43.56196" lon="6.18912">
        <ele>296</ele>
        <time>2022-03-04T15:49:42Z</time>
      </trkpt>
      <trkpt lat="43.56189" lon="6.18907">
        <ele>298</ele>
        <time>2022-03-04T15:50:12Z</time>
      </trkpt>
      <trkpt lat="43.5618" lon="6.18906">
        <ele>299</ele>
        <time>2022-03-04T15:51:01Z</time>
      </trkpt>
      <trkpt lat="43.56172" lon="6.18905">
        <ele>302</ele>
        <time>2022-03-04T15:51:05Z</time>
      </trkpt>
      <trkpt lat="43.56165" lon="6.18901">
        <ele>305</ele>
        <time>2022-03-04T15:51:14Z</time>
      </trkpt>
      <trkpt lat="43.56158" lon="6.18898">
        <ele>307</ele>
        <time>2022-03-04T15:51:34Z</time>
      </trkpt>
      <trkpt lat="43.56148" lon="6.18884">
        <ele>309</ele>
        <time>2022-03-04T15:52:36Z</time>
      </trkpt>
      <trkpt lat="43.56142" lon="6.18878">
        <ele>310</ele>
        <time>2022-03-04T15:52:42Z</time>
      </trkpt>
      <trkpt lat="43.56135" lon="6.18872">
        <ele>312</ele>
        <time>2022-03-04T15:52:47Z</time>
      </trkpt>
      <trkpt lat="43.56131" lon="6.18863">
        <ele>314</ele>
        <time>2022-03-04T15:53:07Z</time>
      </trkpt>
      <trkpt lat="43.56133" lon="6.18852">
        <ele>317</ele>
        <time>2022-03-04T15:53:12Z</time>
      </trkpt>
      <trkpt lat="43.56134" lon="6.18842">
        <ele>319</ele>
        <time>2022-03-04T15:53:24Z</time>
      </trkpt>
      <trkpt lat="43.56138" lon="6.18832">
        <ele>320</ele>
        <time>2022-03-04T15:53:31Z</time>
      </trkpt>
      <trkpt lat="43.56142" lon="6.18824">
        <ele>322</ele>
        <time>2022-03-04T15:54:28Z</time>
      </trkpt>
      <trkpt lat="43.56149" lon="6.18824">
        <ele>322</ele>
        <time>2022-03-04T15:54:41Z</time>
      </trkpt>
      <trkpt lat="43.56163" lon="6.18819">
        <ele>323</ele>
        <time>2022-03-04T15:54:53Z</time>
      </trkpt>
      <trkpt lat="43.5617" lon="6.18812">
        <ele>323</ele>
        <time>2022-03-04T15:55:00Z</time>
      </trkpt>
      <trkpt lat="43.56176" lon="6.18805">
        <ele>322</ele>
        <time>2022-03-04T15:55:13Z</time>
      </trkpt>
      <trkpt lat="43.56181" lon="6.18785">
        <ele>321</ele>
        <time>2022-03-04T15:55:40Z</time>
      </trkpt>
      <trkpt lat="43.56185" lon="6.18764">
        <ele>324</ele>
        <time>2022-03-04T15:56:07Z</time>
      </trkpt>
      <trkpt lat="43.56192" lon="6.18745">
        <ele>325</ele>
        <time>2022-03-04T15:56:36Z</time>
      </trkpt>
      <trkpt lat="43.56193" lon="6.18735">
        <ele>325</ele>
        <time>2022-03-04T15:56:52Z</time>
      </trkpt>
      <trkpt lat="43.56188" lon="6.18714">
        <ele>326</ele>
        <time>2022-03-04T15:57:25Z</time>
      </trkpt>
      <trkpt lat="43.56184" lon="6.18694">
        <ele>327</ele>
        <time>2022-03-04T15:57:46Z</time>
      </trkpt>
      <trkpt lat="43.56187" lon="6.18662">
        <ele>328</ele>
        <time>2022-03-04T15:58:50Z</time>
      </trkpt>
      <trkpt lat="43.5619" lon="6.18653">
        <ele>328</ele>
        <time>2022-03-04T15:58:56Z</time>
      </trkpt>
      <trkpt lat="43.56191" lon="6.18643">
        <ele>331</ele>
        <time>2022-03-04T15:59:05Z</time>
      </trkpt>
      <trkpt lat="43.56201" lon="6.18603">
        <ele>335</ele>
        <time>2022-03-04T15:59:39Z</time>
      </trkpt>
      <trkpt lat="43.56218" lon="6.18571">
        <ele>335</ele>
        <time>2022-03-04T16:00:14Z</time>
      </trkpt>
      <trkpt lat="43.56224" lon="6.18552">
        <ele>335</ele>
        <time>2022-03-04T16:00:39Z</time>
      </trkpt>
      <trkpt lat="43.56225" lon="6.18532">
        <ele>335</ele>
        <time>2022-03-04T16:01:00Z</time>
      </trkpt>
      <trkpt lat="43.56233" lon="6.18511">
        <ele>336</ele>
        <time>2022-03-04T16:01:12Z</time>
      </trkpt>
      <trkpt lat="43.56242" lon="6.18493">
        <ele>336</ele>
        <time>2022-03-04T16:01:38Z</time>
      </trkpt>
      <trkpt lat="43.5625" lon="6.18465">
        <ele>336</ele>
        <time>2022-03-04T16:02:12Z</time>
      </trkpt>
      <trkpt lat="43.56255" lon="6.18457">
        <ele>336</ele>
        <time>2022-03-04T16:04:37Z</time>
      </trkpt>
      <trkpt lat="43.56259" lon="6.18447">
        <ele>337</ele>
        <time>2022-03-04T16:05:58Z</time>
      </trkpt>
      <trkpt lat="43.5627" lon="6.18434">
        <ele>338</ele>
        <time>2022-03-04T16:06:21Z</time>
      </trkpt>
      <trkpt lat="43.56277" lon="6.1843">
        <ele>336</ele>
        <time>2022-03-04T16:06:37Z</time>
      </trkpt>
      <trkpt lat="43.56284" lon="6.18427">
        <ele>334</ele>
        <time>2022-03-04T16:07:10Z</time>
      </trkpt>
      <trkpt lat="43.56288" lon="6.18436">
        <ele>331</ele>
        <time>2022-03-04T16:07:30Z</time>
      </trkpt>
      <trkpt lat="43.56291" lon="6.18456">
        <ele>330</ele>
        <time>2022-03-04T16:07:47Z</time>
      </trkpt>
      <trkpt lat="43.56295" lon="6.18464">
        <ele>329</ele>
        <time>2022-03-04T16:07:58Z</time>
      </trkpt>
      <trkpt lat="43.56293" lon="6.18469">
        <ele>326</ele>
        <time>2022-03-04T16:09:36Z</time>
      </trkpt>
      <trkpt lat="43.56278" lon="6.18474">
        <ele>327</ele>
        <time>2022-03-04T16:10:14Z</time>
      </trkpt>
      <trkpt lat="43.56272" lon="6.18466">
        <ele>327</ele>
        <time>2022-03-04T16:10:31Z</time>
      </trkpt>
      <trkpt lat="43.5627" lon="6.18456">
        <ele>328</ele>
        <time>2022-03-04T16:10:39Z</time>
      </trkpt>
      <trkpt lat="43.56263" lon="6.1845">
        <ele>332</ele>
        <time>2022-03-04T16:11:16Z</time>
      </trkpt>
      <trkpt lat="43.56257" lon="6.18445">
        <ele>335</ele>
        <time>2022-03-04T16:11:25Z</time>
      </trkpt>
      <trkpt lat="43.56252" lon="6.18438">
        <ele>335</ele>
        <time>2022-03-04T16:11:31Z</time>
      </trkpt>
      <trkpt lat="43.56247" lon="6.18429">
        <ele>337</ele>
        <time>2022-03-04T16:11:39Z</time>
      </trkpt>
      <trkpt lat="43.56242" lon="6.18409">
        <ele>338</ele>
        <time>2022-03-04T16:11:52Z</time>
      </trkpt>
      <trkpt lat="43.5624" lon="6.18388">
        <ele>340</ele>
        <time>2022-03-04T16:12:03Z</time>
      </trkpt>
      <trkpt lat="43.56243" lon="6.18378">
        <ele>340</ele>
        <time>2022-03-04T16:12:11Z</time>
      </trkpt>
      <trkpt lat="43.56255" lon="6.18367">
        <ele>338</ele>
        <time>2022-03-04T16:12:49Z</time>
      </trkpt>
      <trkpt lat="43.56261" lon="6.18362">
        <ele>338</ele>
        <time>2022-03-04T16:13:00Z</time>
      </trkpt>
      <trkpt lat="43.56268" lon="6.18351">
        <ele>337</ele>
        <time>2022-03-04T16:13:08Z</time>
      </trkpt>
      <trkpt lat="43.56272" lon="6.18331">
        <ele>336</ele>
        <time>2022-03-04T16:13:21Z</time>
      </trkpt>
      <trkpt lat="43.56278" lon="6.18265">
        <ele>332</ele>
        <time>2022-03-04T16:13:56Z</time>
      </trkpt>
      <trkpt lat="43.56285" lon="6.18247">
        <ele>332</ele>
        <time>2022-03-04T16:14:09Z</time>
      </trkpt>
      <trkpt lat="43.5629" lon="6.1824">
        <ele>337</ele>
        <time>2022-03-04T16:15:08Z</time>
      </trkpt>
      <trkpt lat="43.56307" lon="6.18205">
        <ele>337</ele>
        <time>2022-03-04T16:15:33Z</time>
      </trkpt>
      <trkpt lat="43.56329" lon="6.18159">
        <ele>335</ele>
        <time>2022-03-04T16:16:06Z</time>
      </trkpt>
      <trkpt lat="43.56347" lon="6.18124">
        <ele>339</ele>
        <time>2022-03-04T16:16:32Z</time>
      </trkpt>
      <trkpt lat="43.56352" lon="6.18117">
        <ele>342</ele>
        <time>2022-03-04T16:16:41Z</time>
      </trkpt>
      <trkpt lat="43.5636" lon="6.18116">
        <ele>342</ele>
        <time>2022-03-04T16:17:21Z</time>
      </trkpt>
      <trkpt lat="43.56367" lon="6.18116">
        <ele>344</ele>
        <time>2022-03-04T16:17:38Z</time>
      </trkpt>
      <trkpt lat="43.56373" lon="6.18111">
        <ele>345</ele>
        <time>2022-03-04T16:17:58Z</time>
      </trkpt>
      <trkpt lat="43.56382" lon="6.18109">
        <ele>347</ele>
        <time>2022-03-04T16:18:20Z</time>
      </trkpt>
      <trkpt lat="43.56388" lon="6.18104">
        <ele>348</ele>
        <time>2022-03-04T16:18:28Z</time>
      </trkpt>
      <trkpt lat="43.56402" lon="6.1808">
        <ele>351</ele>
        <time>2022-03-04T16:19:05Z</time>
      </trkpt>
      <trkpt lat="43.56416" lon="6.18041">
        <ele>352</ele>
        <time>2022-03-04T16:19:31Z</time>
      </trkpt>
      <trkpt lat="43.56424" lon="6.18">
        <ele>358</ele>
        <time>2022-03-04T16:19:57Z</time>
      </trkpt>
      <trkpt lat="43.56439" lon="6.1796">
        <ele>361</ele>
        <time>2022-03-04T16:20:21Z</time>
      </trkpt>
      <trkpt lat="43.56453" lon="6.17909">
        <ele>366</ele>
        <time>2022-03-04T16:20:54Z</time>
      </trkpt>
      <trkpt lat="43.56461" lon="6.1789">
        <ele>368</ele>
        <time>2022-03-04T16:21:05Z</time>
      </trkpt>
      <trkpt lat="43.56467" lon="6.17885">
        <ele>368</ele>
        <time>2022-03-04T16:21:11Z</time>
      </trkpt>
      <trkpt lat="43.56476" lon="6.17884">
        <ele>367</ele>
        <time>2022-03-04T16:21:17Z</time>
      </trkpt>
      <trkpt lat="43.56483" lon="6.17886">
        <ele>366</ele>
        <time>2022-03-04T16:21:23Z</time>
      </trkpt>
      <trkpt lat="43.5653" lon="6.17905">
        <ele>365</ele>
        <time>2022-03-04T16:21:57Z</time>
      </trkpt>
      <trkpt lat="43.56535" lon="6.17912">
        <ele>366</ele>
        <time>2022-03-04T16:22:19Z</time>
      </trkpt>
      <trkpt lat="43.56542" lon="6.17917">
        <ele>366</ele>
        <time>2022-03-04T16:22:39Z</time>
      </trkpt>
      <trkpt lat="43.56557" lon="6.17914">
        <ele>367</ele>
        <time>2022-03-04T16:23:06Z</time>
      </trkpt>
      <trkpt lat="43.56564" lon="6.1791">
        <ele>368</ele>
        <time>2022-03-04T16:23:18Z</time>
      </trkpt>
      <trkpt lat="43.56574" lon="6.17907">
        <ele>369</ele>
        <time>2022-03-04T16:23:24Z</time>
      </trkpt>
      <trkpt lat="43.56603" lon="6.179">
        <ele>372</ele>
        <time>2022-03-04T16:24:00Z</time>
      </trkpt>
      <trkpt lat="43.56633" lon="6.17899">
        <ele>372</ele>
        <time>2022-03-04T16:24:31Z</time>
      </trkpt>
      <trkpt lat="43.56656" lon="6.17897">
        <ele>374</ele>
        <time>2022-03-04T16:24:50Z</time>
      </trkpt>
      <trkpt lat="43.56664" lon="6.17895">
        <ele>374</ele>
        <time>2022-03-04T16:25:08Z</time>
      </trkpt>
      <trkpt lat="43.56669" lon="6.17888">
        <ele>374</ele>
        <time>2022-03-04T16:25:16Z</time>
      </trkpt>
      <trkpt lat="43.56672" lon="6.17879">
        <ele>376</ele>
        <time>2022-03-04T16:25:21Z</time>
      </trkpt>
      <trkpt lat="43.56674" lon="6.17868">
        <ele>378</ele>
        <time>2022-03-04T16:25:28Z</time>
      </trkpt>
      <trkpt lat="43.56674" lon="6.17858">
        <ele>378</ele>
        <time>2022-03-04T16:25:39Z</time>
      </trkpt>
      <trkpt lat="43.56669" lon="6.17838">
        <ele>378</ele>
        <time>2022-03-04T16:25:57Z</time>
      </trkpt>
      <trkpt lat="43.56669" lon="6.17828">
        <ele>381</ele>
        <time>2022-03-04T16:26:06Z</time>
      </trkpt>
      <trkpt lat="43.56669" lon="6.17818">
        <ele>384</ele>
        <time>2022-03-04T16:26:14Z</time>
      </trkpt>
      <trkpt lat="43.56675" lon="6.17811">
        <ele>384</ele>
        <time>2022-03-04T16:26:32Z</time>
      </trkpt>
      <trkpt lat="43.56682" lon="6.17807">
        <ele>385</ele>
        <time>2022-03-04T16:26:46Z</time>
      </trkpt>
    </trkseg>
  </trk>
</gpx>